Time;durP1;ratioP1;P1;durP2;ratioP2;P2;SDS_P1;SDS_P2;PMS_P1;PMS_P2;Temp;Humidity;BMP_temperature;BMP_pressure;BME280_temperature;BME280_humidity;BME280_pressure;Samples;Min_cycle;Max_cycle;Signal;HPM_P1;HPM_P2
2022/03/05 00:02:21;;;;;;;38.27;21.37;;;;;;;5.48;70.96;100902.75;5035115;28;20183;-80
2022/03/05 00:04:47;;;;;;;39.17;21.80;;;;;;;5.47;70.79;100899.28;5035998;28;20176;-80
2022/03/05 00:07:13;;;;;;;41.53;23.27;;;;;;;5.47;70.16;100908.56;5037372;28;20187;-79
2022/03/05 00:09:38;;;;;;;42.30;22.03;;;;;;;5.38;70.68;100902.41;5045154;28;20172;-79
2022/03/05 00:12:04;;;;;;;39.93;22.93;;;;;;;5.39;70.00;100914.38;5045123;28;20243;-80
2022/03/05 00:14:29;;;;;;;35.90;21.17;;;;;;;5.33;70.27;100912.97;5046599;28;20184;-79
2022/03/05 00:16:55;;;;;;;35.40;20.07;;;;;;;5.33;70.63;100907.00;5048597;28;20206;-77
2022/03/05 00:19:21;;;;;;;37.77;20.20;;;;;;;5.31;70.47;100908.44;5054114;28;20234;-80
2022/03/05 00:21:46;;;;;;;34.13;19.70;;;;;;;5.30;70.43;100910.09;5057873;28;20167;-80
2022/03/05 00:24:12;;;;;;;29.00;17.00;;;;;;;5.32;69.77;100906.06;5058277;28;20187;-79
2022/03/05 00:26:37;;;;;;;34.43;16.50;;;;;;;5.24;70.51;100911.00;5055870;28;20217;-81
2022/03/05 00:29:03;;;;;;;28.63;18.10;;;;;;;5.17;70.29;100914.47;5047442;28;20241;-80
2022/03/05 00:31:28;;;;;;;30.77;18.83;;;;;;;5.16;70.49;100911.75;5046866;28;20279;-81
2022/03/05 00:33:54;;;;;;;30.37;18.47;;;;;;;5.10;69.68;100905.22;5046665;28;20168;-81
2022/03/05 00:36:19;;;;;;;29.00;17.50;;;;;;;5.06;69.68;100897.09;5046090;28;20196;-83
2022/03/05 00:38:45;;;;;;;26.67;16.53;;;;;;;5.02;70.48;100894.94;5047596;28;20599;-81
2022/03/05 00:41:11;;;;;;;28.43;17.57;;;;;;;4.97;70.05;100889.28;5040848;28;20203;-81
2022/03/05 00:43:37;;;;;;;30.10;17.93;;;;;;;4.97;70.28;100898.53;5032235;28;20614;-81
2022/03/05 00:46:02;;;;;;;35.13;18.93;;;;;;;4.90;70.60;100893.50;5033101;28;20176;-81
2022/03/05 00:48:28;;;;;;;30.90;19.33;;;;;;;4.74;70.36;100873.94;5032847;28;20186;-81
2022/03/05 00:50:53;;;;;;;30.50;18.70;;;;;;;4.76;71.25;100872.47;5034425;28;20186;-82
2022/03/05 00:53:21;;;;;;;34.67;20.20;;;;;;;4.83;70.77;100887.69;5034191;28;20255;-81
2022/03/05 00:55:47;;;;;;;32.70;19.03;;;;;;;4.79;71.42;100888.03;5031135;28;20183;-82
2022/03/05 00:58:14;;;;;;;30.03;18.47;;;;;;;4.79;71.11;100892.22;5032248;28;20199;-81
2022/03/05 01:00:40;;;;;;;31.70;18.40;;;;;;;4.77;70.80;100894.59;5032164;28;20168;-81
2022/03/05 01:03:06;;;;;;;32.60;20.00;;;;;;;4.77;71.29;100896.25;5030848;28;20237;-81
2022/03/05 01:05:31;;;;;;;32.90;19.77;;;;;;;4.41;71.17;100842.97;5032044;28;20168;-81
2022/03/05 01:07:57;;;;;;;32.30;19.80;;;;;;;4.70;71.14;100898.75;5032931;28;20235;-81
2022/03/05 01:10:22;;;;;;;32.13;20.03;;;;;;;4.71;70.63;100904.03;5032198;28;20168;-81
2022/03/05 01:12:48;;;;;;;33.97;19.57;;;;;;;4.69;71.26;100909.66;5032062;28;20176;-81
2022/03/05 01:15:13;;;;;;;34.53;20.10;;;;;;;4.67;71.37;100913.63;5031902;28;20569;-82
2022/03/05 01:17:39;;;;;;;35.57;19.47;;;;;;;4.66;70.79;100905.13;5031761;28;20249;-81
2022/03/05 01:20:05;;;;;;;31.17;18.50;;;;;;;4.60;71.67;100894.25;5032176;28;20172;-83
2022/03/05 01:22:31;;;;;;;31.93;19.73;;;;;;;4.65;71.24;100904.94;5032249;28;20168;-81
2022/03/05 01:24:56;;;;;;;33.80;20.37;;;;;;;4.61;70.51;100902.06;5032451;28;20267;-79
2022/03/05 01:27:22;;;;;;;34.07;19.97;;;;;;;4.64;71.27;100906.56;5031624;28;20203;-81
2022/03/05 01:29:48;;;;;;;38.57;21.50;;;;;;;4.62;71.37;100900.41;5031750;28;20167;-82
2022/03/05 01:32:14;;;;;;;36.37;20.13;;;;;;;4.61;72.54;100896.03;5031978;28;20187;-82
2022/03/05 01:34:39;;;;;;;31.43;20.03;;;;;;;4.65;72.59;100899.88;5032076;28;20172;-81
2022/03/05 01:37:05;;;;;;;32.23;18.57;;;;;;;4.67;73.01;100895.84;5031582;28;20675;-82
2022/03/05 01:39:30;;;;;;;39.57;22.60;;;;;;;4.75;73.54;100907.84;5032158;28;20199;-82
2022/03/05 01:41:56;;;;;;;42.87;23.60;;;;;;;4.74;74.44;100903.50;5032056;28;20219;-81
2022/03/05 01:44:22;;;;;;;42.27;21.47;;;;;;;4.78;74.36;100906.56;5031758;28;20274;-81
2022/03/05 01:46:48;;;;;;;38.97;21.13;;;;;;;4.80;73.80;100904.22;5039473;28;20180;-84
2022/03/05 01:49:14;;;;;;;38.20;21.83;;;;;;;4.78;73.37;100893.84;5037737;28;20195;-80
2022/03/05 01:51:40;;;;;;;37.23;20.57;;;;;;;4.81;74.41;100901.84;5032883;28;20175;-82
2022/03/05 01:54:08;;;;;;;31.83;19.83;;;;;;;4.78;74.37;100896.41;5032753;28;20234;-80
2022/03/05 01:56:34;;;;;;;34.53;21.03;;;;;;;4.80;73.86;100899.13;5031869;28;20776;-82
2022/03/05 01:59:00;;;;;;;35.03;19.67;;;;;;;4.75;73.73;100901.13;5038171;28;20176;-82
2022/03/05 02:01:28;;;;;;;34.40;21.40;;;;;;;4.75;74.21;100907.84;5043529;28;20164;-80
2022/03/05 02:03:54;;;;;;;33.20;19.53;;;;;;;4.65;74.32;100907.47;5045313;28;20172;-81
2022/03/05 02:06:20;;;;;;;38.87;21.17;;;;;;;4.51;73.79;100895.69;5041831;28;20246;-81
2022/03/05 02:08:47;;;;;;;31.77;19.67;;;;;;;4.53;74.88;100910.38;5032696;28;20239;-82
2022/03/05 02:11:12;;;;;;;33.50;19.43;;;;;;;4.54;75.46;100913.81;5031756;28;20708;-81
2022/03/05 02:13:38;;;;;;;37.00;21.00;;;;;;;4.50;74.77;100920.16;5031788;28;20169;-81
2022/03/05 02:16:04;;;;;;;35.23;20.53;;;;;;;4.44;74.92;100904.22;5032233;28;20203;-82
2022/03/05 02:18:29;;;;;;;38.40;21.57;;;;;;;4.45;75.41;100922.88;5031610;28;20591;-82
2022/03/05 02:20:55;;;;;;;36.00;21.03;;;;;;;4.39;74.79;100911.28;5031293;28;20176;-81
2022/03/05 02:23:21;;;;;;;34.97;20.40;;;;;;;4.30;74.76;100902.59;5031193;28;20180;-81
2022/03/05 02:26:04;;;;;;;39.20;22.10;;;;;;;4.36;74.83;100908.41;5031777;28;20176;-80
2022/03/05 02:28:32;;;;;;;34.87;20.00;;;;;;;4.07;74.63;100855.81;5031820;28;20256;-81
2022/03/05 02:30:58;;;;;;;34.27;20.57;;;;;;;4.30;74.97;100894.97;5031998;28;20195;-81
2022/03/05 02:33:24;;;;;;;36.47;21.33;;;;;;;4.29;74.62;100900.75;5040153;28;20180;-81
2022/03/05 02:35:50;;;;;;;34.20;21.10;;;;;;;4.32;74.53;100900.22;5039308;28;20612;-82
2022/03/05 02:38:17;;;;;;;35.83;20.43;;;;;;;4.29;74.55;100899.84;5041771;28;20215;-81
2022/03/05 02:40:44;;;;;;;36.13;21.03;;;;;;;4.28;75.12;100898.06;5043054;28;20176;-81
2022/03/05 02:43:10;;;;;;;38.53;22.07;;;;;;;4.23;74.82;100900.03;5037793;28;20247;-82
2022/03/05 02:45:36;;;;;;;38.50;22.57;;;;;;;4.16;73.89;100888.25;5038600;28;20168;-82
2022/03/05 02:48:04;;;;;;;45.77;25.03;;;;;;;4.16;74.28;100915.25;5036700;28;20183;-80
2022/03/05 02:50:30;;;;;;;42.57;23.63;;;;;;;4.17;74.15;100914.50;5034665;28;20176;-82
2022/03/05 02:52:56;;;;;;;38.87;21.47;;;;;;;4.13;73.98;100917.41;5034780;28;20184;-80
2022/03/05 02:55:22;;;;;;;36.83;21.77;;;;;;;4.08;73.37;100918.47;5033091;28;20180;-82
2022/03/05 02:57:48;;;;;;;36.17;20.43;;;;;;;4.03;74.09;100919.56;5038221;28;20779;-80
2022/03/05 03:00:15;;;;;;;32.77;19.97;;;;;;;3.98;74.29;100919.00;5034779;28;20263;-80
2022/03/05 03:02:41;;;;;;;35.40;20.67;;;;;;;3.98;73.61;100925.69;5034657;28;20179;-81
2022/03/05 03:05:07;;;;;;;34.70;19.73;;;;;;;3.89;74.13;100916.28;5034282;28;20179;-79
2022/03/05 03:07:32;;;;;;;35.77;19.33;;;;;;;3.99;73.76;100924.97;5034619;28;20255;-82
2022/03/05 03:09:58;;;;;;;37.97;19.27;;;;;;;3.98;74.76;100926.59;5034358;28;20184;-81
2022/03/05 03:12:26;;;;;;;35.70;20.47;;;;;;;4.01;73.90;100931.16;5034661;28;20238;-81
2022/03/05 03:14:51;;;;;;;36.13;19.43;;;;;;;4.02;74.09;100936.41;5034328;28;20216;-80
2022/03/05 03:17:17;;;;;;;37.50;21.50;;;;;;;4.02;74.48;100933.88;5034736;28;20243;-82
2022/03/05 03:19:42;;;;;;;39.63;23.93;;;;;;;4.03;74.06;100934.78;5034575;28;20180;-81
2022/03/05 03:22:08;;;;;;;37.63;20.80;;;;;;;4.05;74.39;100930.78;5034358;28;20204;-80
2022/03/05 03:24:33;;;;;;;37.23;20.00;;;;;;;4.07;75.18;100937.84;5034400;28;20180;-80
2022/03/05 03:26:59;;;;;;;37.93;19.83;;;;;;;4.07;75.68;100942.03;5034536;28;20658;-81
2022/03/05 03:29:24;;;;;;;33.77;19.67;;;;;;;3.91;75.46;100908.84;5034491;28;20184;-80
2022/03/05 03:31:50;;;;;;;34.03;20.33;;;;;;;4.09;75.69;100953.28;5046001;28;20176;-81
2022/03/05 03:34:15;;;;;;;34.67;20.40;;;;;;;4.10;76.17;100953.44;5048007;28;20210;-79
2022/03/05 03:36:41;;;;;;;31.43;19.50;;;;;;;4.02;76.09;100945.63;5046073;28;20262;-81
2022/03/05 03:39:06;;;;;;;33.77;20.13;;;;;;;4.00;76.54;100949.63;5053881;28;20179;-80
2022/03/05 03:41:32;;;;;;;38.73;20.77;;;;;;;4.08;75.48;100957.44;5054010;28;20191;-81
2022/03/05 03:43:57;;;;;;;37.13;20.97;;;;;;;4.01;74.96;100969.19;5046080;28;20171;-80
2022/03/05 03:46:23;;;;;;;35.93;21.37;;;;;;;3.96;75.25;100970.25;5045918;28;20198;-81
2022/03/05 03:48:48;;;;;;;35.80;21.13;;;;;;;3.89;74.74;100966.06;5042361;28;20180;-82
2022/03/05 03:51:14;;;;;;;35.03;21.70;;;;;;;3.83;75.79;100966.25;5049996;28;20176;-81
2022/03/05 03:53:39;;;;;;;35.37;21.67;;;;;;;3.82;75.51;100966.94;5045807;28;20202;-80
2022/03/05 03:56:05;;;;;;;35.40;20.97;;;;;;;3.76;76.31;100961.13;5043310;28;20184;-80
2022/03/05 03:58:31;;;;;;;40.30;22.13;;;;;;;3.82;75.94;100968.56;5045575;28;20214;-81
2022/03/05 04:00:57;;;;;;;36.70;22.07;;;;;;;3.75;76.72;100956.78;5045190;28;20180;-78
2022/03/05 04:03:23;;;;;;;42.53;23.13;;;;;;;3.87;76.60;100970.06;5038610;28;20184;-80
2022/03/05 04:05:48;;;;;;;36.27;20.83;;;;;;;3.90;76.82;100975.50;5036893;28;20604;-81
2022/03/05 04:10:58;;;;;;;33.73;20.00;;;;;;;3.94;75.85;100981.13;5035119;28;20381;-79
2022/03/05 04:13:24;;;;;;;32.90;20.40;;;;;;;3.93;75.49;100976.78;5034733;28;20628;-81
2022/03/05 04:15:49;;;;;;;32.93;19.27;;;;;;;3.84;76.06;100964.59;5034572;28;20172;-82
2022/03/05 04:18:16;;;;;;;34.87;19.97;;;;;;;3.88;75.64;100974.38;5036464;28;20246;-80
2022/03/05 04:20:41;;;;;;;32.30;20.20;;;;;;;3.89;75.76;100974.59;5033424;28;20766;-80
2022/03/05 04:23:07;;;;;;;34.23;20.03;;;;;;;4.04;76.21;100994.91;5033199;28;20259;-80
2022/03/05 04:25:32;;;;;;;33.27;19.87;;;;;;;4.03;75.91;100994.00;5033246;28;20204;-80
2022/03/05 04:27:58;;;;;;;36.90;21.03;;;;;;;4.02;75.45;101007.41;5033060;28;20176;-80
2022/03/05 04:30:23;;;;;;;38.53;20.47;;;;;;;3.93;75.56;100991.97;5033587;28;20566;-81
2022/03/05 04:32:49;;;;;;;36.77;21.23;;;;;;;3.97;75.92;101005.03;5033644;28;20176;-82
2022/03/05 04:35:14;;;;;;;42.70;21.60;;;;;;;3.82;75.62;100989.75;5032991;28;20196;-81
2022/03/05 04:37:40;;;;;;;37.90;21.77;;;;;;;3.87;75.58;101008.06;5033770;28;20219;-81
2022/03/05 04:40:07;;;;;;;39.77;21.90;;;;;;;3.89;75.20;101011.69;5033238;28;20169;-80
2022/03/05 04:42:32;;;;;;;36.20;20.73;;;;;;;3.84;75.41;101016.22;5030736;28;20246;-80
2022/03/05 04:44:58;;;;;;;33.03;21.13;;;;;;;3.83;75.92;101019.47;5031358;28;20837;-79
2022/03/05 04:47:24;;;;;;;39.83;21.60;;;;;;;3.82;75.77;101020.16;5033978;28;20164;-82
2022/03/05 04:49:50;;;;;;;39.00;22.00;;;;;;;3.80;74.99;101015.63;5033841;28;20531;-80
2022/03/05 04:52:15;;;;;;;38.03;22.37;;;;;;;3.72;75.28;101002.03;5033593;28;20190;-81
2022/03/05 04:54:41;;;;;;;41.10;22.87;;;;;;;3.67;74.62;100992.94;5032665;28;20176;-80
2022/03/05 04:57:06;;;;;;;43.57;24.97;;;;;;;3.82;75.66;101037.91;5033787;28;20195;-81
2022/03/05 04:59:32;;;;;;;52.53;24.80;;;;;;;3.80;75.62;101024.16;5033766;28;20186;-80
2022/03/05 05:01:59;;;;;;;46.87;28.07;;;;;;;3.86;74.96;101031.59;5033398;28;20168;-81
2022/03/05 05:04:26;;;;;;;49.30;28.03;;;;;;;3.80;74.92;101016.56;5033242;28;20641;-80
2022/03/05 05:06:51;;;;;;;46.50;26.47;;;;;;;3.87;75.68;101024.19;5032016;28;20190;-81
2022/03/05 05:09:17;;;;;;;51.83;25.37;;;;;;;3.88;75.29;101020.03;5032860;28;20244;-81
2022/03/05 05:11:43;;;;;;;45.40;24.03;;;;;;;3.84;75.45;101007.69;5034436;28;20269;-81
2022/03/05 05:14:10;;;;;;;48.00;26.73;;;;;;;4.02;75.04;101035.31;5034465;28;20187;-81
2022/03/05 05:16:36;;;;;;;48.90;27.40;;;;;;;3.95;74.46;101012.44;5032282;28;20180;-81
2022/03/05 05:21:46;;;;;;;53.77;30.27;;;;;;;4.12;73.55;101043.31;5030390;28;20233;-78
2022/03/05 05:24:12;;;;;;;42.97;25.57;;;;;;;3.89;73.83;100999.94;5030333;28;20690;-79
2022/03/05 05:26:37;;;;;;;49.83;25.53;;;;;;;4.15;73.37;101040.25;5028509;28;20167;-78
2022/03/05 05:29:03;;;;;;;44.47;25.03;;;;;;;4.20;73.38;101056.91;5029417;28;20171;-77
2022/03/05 05:31:29;;;;;;;47.13;25.00;;;;;;;4.05;73.23;101030.63;5028456;28;20262;-80
2022/03/05 05:33:54;;;;;;;39.33;22.50;;;;;;;4.09;72.68;101040.41;5030740;28;20178;-81
2022/03/05 05:36:19;;;;;;;39.20;22.90;;;;;;;4.20;73.43;101061.97;5031290;28;20196;-80
2022/03/05 05:38:45;;;;;;;39.23;23.73;;;;;;;4.17;73.10;101054.00;5031518;28;20290;-79
2022/03/05 05:41:12;;;;;;;43.27;24.43;;;;;;;4.27;72.68;101059.50;5031576;28;20183;-79
2022/03/05 05:43:38;;;;;;;39.93;24.00;;;;;;;4.31;73.54;101068.38;5031519;28;20302;-77
2022/03/05 05:46:03;;;;;;;36.13;22.33;;;;;;;4.24;72.80;101056.59;5031326;28;20182;-77
2022/03/05 05:48:29;;;;;;;43.97;23.50;;;;;;;4.36;72.68;101073.28;5031072;28;20254;-80
2022/03/05 05:50:55;;;;;;;39.27;23.67;;;;;;;4.37;73.15;101081.81;5031671;28;20206;-78
2022/03/05 05:53:21;;;;;;;38.67;22.47;;;;;;;4.39;72.51;101081.28;5032252;28;20730;-79
2022/03/05 05:55:46;;;;;;;45.10;25.10;;;;;;;4.40;72.98;101083.09;5032316;28;20180;-79
2022/03/05 05:58:12;;;;;;;44.00;24.87;;;;;;;4.31;73.35;101060.78;5031589;28;20282;-80
2022/03/05 06:00:37;;;;;;;46.37;24.00;;;;;;;4.49;72.51;101087.47;5031817;28;20226;-80
2022/03/05 06:03:03;;;;;;;44.17;24.97;;;;;;;4.54;72.98;101089.81;5031861;28;20172;-83
2022/03/05 06:05:28;;;;;;;49.67;25.60;;;;;;;4.20;72.90;101021.41;5031889;28;20192;-80
2022/03/05 06:07:56;;;;;;;41.93;23.57;;;;;;;4.72;72.41;101098.75;5031515;28;20639;-78
2022/03/05 06:10:24;;;;;;;47.10;25.67;;;;;;;4.79;72.42;101095.31;5046290;28;20172;-83
2022/03/05 06:12:52;;;;;;;43.87;24.13;;;;;;;4.76;71.65;101065.38;5049378;28;20307;-87
2022/03/05 06:15:17;;;;;;;40.93;22.97;;;;;;;5.08;71.75;101106.44;5041881;28;20233;-82
2022/03/05 06:17:50;;;;;;;61.37;29.60;;;;;;;5.00;71.14;101067.41;5044204;28;20211;-80
2022/03/05 06:20:16;;;;;;;55.13;30.30;;;;;;;5.39;70.86;101099.91;5044813;28;20188;-79
2022/03/05 06:22:46;;;;;;;41.57;23.30;;;;;;;5.50;70.17;101091.91;5049587;28;20188;-82
2022/03/05 06:25:14;;;;;;;41.93;22.87;;;;;;;5.65;70.43;101095.34;5044514;28;20187;-79
2022/03/05 06:27:39;;;;;;;45.77;23.20;;;;;;;5.78;69.31;101093.50;5040631;28;20191;-82
2022/03/05 06:30:06;;;;;;;45.07;24.67;;;;;;;5.92;68.96;101090.00;5039503;28;20187;-84
2022/03/05 06:32:32;;;;;;;44.65;23.80;;;;;;;6.03;68.67;101097.28;5039282;28;20203;-83
2022/03/05 06:34:57;;;;;;;46.67;24.00;;;;;;;6.20;67.95;101104.34;5021175;28;20666;-82
2022/03/05 06:37:23;;;;;;;38.58;22.80;;;;;;;6.29;68.13;101089.19;5038382;28;20214;-79
2022/03/05 06:39:49;;;;;;;37.47;22.43;;;;;;;6.48;67.16;101105.84;5035177;28;20180;-79
2022/03/05 06:42:16;;;;;;;43.78;22.00;;;;;;;6.61;67.13;101103.06;5035209;28;20754;-79
2022/03/05 06:44:42;;;;;;;38.95;21.98;;;;;;;6.67;66.79;101091.00;5035940;28;20184;-79
2022/03/05 06:47:08;;;;;;;36.60;22.20;;;;;;;6.80;66.06;101095.84;5018671;28;20382;-81
2022/03/05 06:49:37;;;;;;;41.13;23.75;;;;;;;6.99;65.54;101103.91;5035116;28;20694;-80
2022/03/05 06:52:06;;;;;;;40.17;22.40;;;;;;;7.03;65.16;101103.50;5035213;28;20219;-80
2022/03/05 06:54:34;;;;;;;73.60;41.10;;;;;;;7.16;64.93;101104.13;5036731;28;20658;-83
2022/03/05 06:56:59;;;;;;;46.53;26.52;;;;;;;7.15;64.75;101082.84;5035798;28;20219;-82
2022/03/05 06:59:25;;;;;;;39.85;22.88;;;;;;;7.34;64.30;101102.72;5037480;28;20670;-80
2022/03/05 07:01:50;;;;;;;37.67;21.08;;;;;;;7.40;64.54;101095.75;5037567;28;20238;-83
2022/03/05 07:04:26;;;;;;;38.03;21.98;;;;;;;7.57;64.78;101108.72;5046360;28;20655;-81
2022/03/05 07:06:54;;;;;;;32.88;20.17;;;;;;;7.70;64.20;101104.97;5037614;28;20258;-80
2022/03/05 07:09:19;;;;;;;35.33;21.00;;;;;;;7.72;64.27;101073.75;5037385;28;20172;-80
2022/03/05 07:11:45;;;;;;;36.72;21.40;;;;;;;8.02;63.27;101095.69;5036872;28;20178;-76
2022/03/05 07:14:10;;;;;;;33.35;19.77;;;;;;;8.25;62.33;101103.22;5037576;28;20183;-78
2022/03/05 07:16:36;;;;;;;33.60;19.95;;;;;;;8.31;62.40;101115.00;5035911;28;20184;-79
2022/03/05 07:19:02;;;;;;;31.80;20.70;;;;;;;8.46;62.20;101120.88;5034848;28;20251;-79
2022/03/05 07:21:27;;;;;;;31.23;19.85;;;;;;;8.56;60.91;101121.09;5038171;28;20176;-77
2022/03/05 07:23:53;;;;;;;31.00;18.70;;;;;;;8.56;60.16;101123.66;5043755;28;20599;-81
2022/03/05 07:26:18;;;;;;;26.20;18.23;;;;;;;8.61;59.44;101125.81;5048256;28;20196;-82
2022/03/05 07:28:45;;;;;;;32.78;18.35;;;;;;;8.62;59.49;101125.06;5037664;28;20690;-86
2022/03/05 07:31:11;;;;;;;35.33;19.33;;;;;;;8.63;59.37;101129.41;5040571;28;20176;-86
2022/03/05 07:33:36;;;;;;;31.73;18.83;;;;;;;8.51;59.55;101119.72;5039816;28;20175;-81
2022/03/05 07:36:04;;;;;;;31.33;19.38;;;;;;;8.53;59.78;101128.44;5040447;28;20678;-83
2022/03/05 07:38:31;;;;;;;33.70;20.70;;;;;;;8.55;59.71;101123.50;5035136;28;20215;-81
2022/03/05 07:40:56;;;;;;;35.30;21.60;;;;;;;8.38;60.36;101111.53;5035021;28;20195;-84
2022/03/05 07:43:22;;;;;;;37.03;21.95;;;;;;;8.35;60.40;101113.72;5034564;28;20262;-86
2022/03/05 07:45:48;;;;;;;34.40;21.02;;;;;;;8.42;61.67;101120.41;5035634;28;20231;-82
2022/03/05 07:48:14;;;;;;;42.83;20.75;;;;;;;8.39;61.61;101123.53;5037855;28;20601;-85
2022/03/05 07:50:41;;;;;;;34.55;21.63;;;;;;;8.34;62.38;101114.44;5035284;28;20172;-86
2022/03/05 07:53:06;;;;;;;36.72;20.42;;;;;;;8.41;62.04;101100.69;5035228;28;20554;-84
2022/03/05 07:55:32;;;;;;;35.00;21.20;;;;;;;8.61;61.25;101125.81;5035371;28;20657;-86
2022/03/05 07:57:58;;;;;;;38.03;21.70;;;;;;;8.68;61.61;101125.72;5035206;28;20257;-83
2022/03/05 08:00:23;;;;;;;44.88;22.63;;;;;;;8.67;62.03;101129.91;5035728;28;20200;-84
2022/03/05 08:02:50;;;;;;;31.88;21.52;;;;;;;8.67;61.66;101129.91;5039255;28;20176;-85
2022/03/05 08:05:16;;;;;;;33.90;21.15;;;;;;;8.60;61.31;101114.69;5045360;28;20255;-84
2022/03/05 08:07:42;;;;;;;33.70;20.88;;;;;;;8.67;61.38;101126.47;5045618;28;20183;-84
2022/03/05 08:10:08;;;;;;;34.63;21.40;;;;;;;8.67;61.40;101135.03;5045629;28;20176;-83
2022/03/05 08:12:35;;;;;;;34.15;20.42;;;;;;;8.75;61.62;101141.88;5043498;28;20196;-82
2022/03/05 08:15:01;;;;;;;35.05;21.52;;;;;;;8.73;61.90;101150.09;5041993;28;20200;-85
2022/03/05 08:17:26;;;;;;;51.15;32.20;;;;;;;8.63;61.70;101134.53;5044256;28;20200;-81
2022/03/05 08:19:52;;;;;;;40.42;23.98;;;;;;;8.80;61.62;101147.44;5049229;28;20237;-83
2022/03/05 08:22:17;;;;;;;38.20;23.25;;;;;;;8.69;61.76;101135.19;5048658;28;20182;-82
2022/03/05 08:24:43;;;;;;;44.17;25.35;;;;;;;8.71;61.02;101126.94;5052981;28;20178;-81
2022/03/05 08:27:08;;;;;;;35.78;22.23;;;;;;;8.78;61.64;101142.19;5053203;28;20172;-83
2022/03/05 08:29:34;;;;;;;37.15;22.48;;;;;;;8.79;60.81;101140.53;5056917;28;20175;-84
2022/03/05 08:32:00;;;;;;;38.75;22.55;;;;;;;8.79;61.21;101140.53;5057769;28;20172;-84
2022/03/05 08:34:34;;;;;;;40.00;23.17;;;;;;;8.81;61.26;101143.22;5056543;28;20167;-85
2022/03/05 08:37:07;;;;;;;34.83;21.70;;;;;;;8.82;61.24;101161.31;5050525;28;20199;-84
2022/03/05 08:39:34;;;;;;;38.55;22.30;;;;;;;8.89;61.71;101140.75;5050460;28;20213;-84
2022/03/05 08:42:00;;;;;;;38.10;21.58;;;;;;;8.96;61.85;101119.28;5053491;28;20223;-83
2022/03/05 08:44:28;;;;;;;33.88;21.52;;;;;;;9.21;61.34;101132.97;5049461;28;20172;-84
2022/03/05 08:46:56;;;;;;;35.78;21.92;;;;;;;9.24;61.59;101120.50;5053028;28;20192;-83
2022/03/05 08:49:22;;;;;;;46.00;23.08;;;;;;;9.52;59.75;101142.16;5052875;28;20254;-82
2022/03/05 08:51:47;;;;;;;36.50;22.67;;;;;;;9.62;58.80;101136.31;5048034;28;20209;-83
2022/03/05 08:54:13;;;;;;;41.63;24.80;;;;;;;9.69;57.42;101144.78;5041708;28;20183;-84
2022/03/05 08:56:39;;;;;;;32.95;20.90;;;;;;;9.66;57.24;101118.88;5044934;28;20207;-83
2022/03/05 08:59:04;;;;;;;29.25;20.13;;;;;;;9.87;57.83;101138.03;5036642;28;20211;-83
2022/03/05 09:01:33;;;;;;;57.67;31.48;;;;;;;9.99;58.23;101129.81;5033975;28;20168;-84
2022/03/05 09:03:58;;;;;;;48.63;30.77;;;;;;;10.13;57.83;101126.97;5035735;28;20191;-82
2022/03/05 09:06:25;;;;;;;35.05;20.73;;;;;;;10.31;57.29;101128.84;5035400;28;20172;-83
2022/03/05 09:08:50;;;;;;;34.42;21.77;;;;;;;10.20;56.32;101082.41;5036694;28;20567;-86
2022/03/05 09:11:19;;;;;;;33.00;20.45;;;;;;;10.55;55.40;101137.13;5037208;28;20179;-85
2022/03/05 09:13:44;;;;;;;33.65;21.33;;;;;;;10.61;55.89;101127.47;5040261;28;20207;-84
2022/03/05 09:16:15;;;;;;;34.28;20.90;;;;;;;10.78;55.09;101137.75;5042756;28;20195;-83
2022/03/05 09:18:41;;;;;;;33.20;20.55;;;;;;;10.84;54.39;101124.59;5050445;28;20290;-83
2022/03/05 09:21:12;;;;;;;34.17;21.95;;;;;;;10.83;54.30;101112.53;5029804;28;20192;-84
2022/03/05 09:23:38;;;;;;;31.35;19.33;;;;;;;11.06;54.91;101119.91;5046297;28;20233;-83
2022/03/05 09:26:07;;;;;;;30.58;19.98;;;;;;;11.19;54.46;101117.75;5045898;28;20271;-84
2022/03/05 09:28:33;;;;;;;29.58;19.65;;;;;;;11.26;54.26;101104.72;5038748;28;20183;-83
2022/03/05 09:31:01;;;;;;;29.08;18.67;;;;;;;11.40;53.81;101110.25;5043702;28;20176;-85
2022/03/05 09:33:30;;;;;;;30.70;20.38;;;;;;;11.51;53.45;101107.06;5040555;28;20191;-83
2022/03/05 09:35:55;;;;;;;28.48;18.75;;;;;;;11.71;53.52;101112.41;5033159;28;20196;-85
2022/03/05 09:38:24;;;;;;;29.58;20.27;;;;;;;11.91;52.25;101119.41;5034556;28;20273;-83
2022/03/05 09:40:49;;;;;;;29.48;18.90;;;;;;;11.99;52.01;101125.25;5034450;28;20237;-84
2022/03/05 09:43:18;;;;;;;36.05;20.38;;;;;;;12.00;51.30;101114.25;5032637;28;20220;-82
2022/03/05 09:45:44;;;;;;;33.88;20.73;;;;;;;12.05;51.80;101115.53;5031985;28;20199;-83
2022/03/05 09:48:11;;;;;;;32.63;21.25;;;;;;;12.11;51.20;101113.53;5035172;28;20218;-84
2022/03/05 09:50:37;;;;;;;42.88;24.52;;;;;;;12.08;51.59;101107.22;5039633;28;20233;-83
2022/03/05 09:53:03;;;;;;;37.65;21.63;;;;;;;11.92;51.38;101090.41;5037194;28;20598;-83
2022/03/05 09:55:29;;;;;;;31.17;20.08;;;;;;;11.95;51.48;101098.38;5037167;28;20241;-83
2022/03/05 09:57:55;;;;;;;36.35;19.50;;;;;;;11.92;51.69;101102.34;5039109;28;20254;-85
2022/03/05 10:00:21;;;;;;;37.45;19.95;;;;;;;11.98;51.94;101123.44;5038454;28;20176;-84
2022/03/05 10:02:48;;;;;;;55.65;26.58;;;;;;;11.93;51.48;101116.97;5038805;28;20670;-85
2022/03/05 10:05:24;;;;;;;35.83;20.13;;;;;;;11.91;51.45;101115.94;5038835;28;20179;-81
2022/03/05 10:08:08;;;;;;;30.48;19.13;;;;;;;11.87;51.18;101130.19;5040774;28;20168;-82
2022/03/05 10:10:51;;;;;;;32.63;18.23;;;;;;;11.75;51.81;101122.19;5040895;28;20176;-84
2022/03/05 10:13:31;;;;;;;31.50;18.98;;;;;;;11.70;51.84;101128.56;5045530;28;20176;-83
2022/03/05 10:15:59;;;;;;;29.80;18.50;;;;;;;11.65;52.04;101136.56;5043731;28;20580;-84
2022/03/05 10:18:45;;;;;;;28.85;19.00;;;;;;;11.62;51.75;101138.84;5042313;28;20199;-84
2022/03/05 10:21:10;;;;;;;28.92;19.23;;;;;;;11.55;51.59;101114.28;5035417;28;20207;-83
2022/03/05 10:23:40;;;;;;;28.30;18.63;;;;;;;11.68;51.98;101132.66;5036836;28;20176;-82
2022/03/05 10:26:08;;;;;;;26.80;18.73;;;;;;;11.56;51.90;101106.75;5040873;28;20673;-85
2022/03/05 10:28:37;;;;;;;25.70;17.85;;;;;;;11.71;51.63;101124.31;5049009;28;20216;-87
2022/03/05 10:31:08;;;;;;;31.42;18.90;;;;;;;11.75;51.84;101129.00;5039507;28;20629;-83
2022/03/05 10:33:42;;;;;;;35.53;19.88;;;;;;;11.79;51.94;101121.72;5041287;28;20221;-81
2022/03/05 10:36:19;;;;;;;32.25;19.63;;;;;;;11.77;51.75;101117.19;5038830;28;20200;-85
2022/03/05 10:38:49;;;;;;;37.80;22.20;;;;;;;11.57;51.86;101095.69;5039452;28;20200;-83
2022/03/05 10:41:17;;;;;;;33.38;20.67;;;;;;;11.78;52.21;101124.16;5039392;28;20168;-85
2022/03/05 10:44:15;;;;;;;30.52;20.60;;;;;;;11.88;52.22;101121.69;5038448;28;20223;-85
2022/03/05 10:46:43;;;;;;;28.40;18.70;;;;;;;12.08;51.35;101126.09;5036415;28;20258;-84
2022/03/05 10:49:22;;;;;;;29.88;19.10;;;;;;;12.18;50.70;101115.94;5035097;28;20679;-84
2022/03/05 10:51:50;;;;;;;33.55;20.70;;;;;;;12.34;51.34;101125.94;5034927;28;20243;-84
2022/03/05 10:54:42;;;;;;;38.28;21.38;;;;;;;12.44;50.49;101125.09;5037272;28;20203;-83
2022/03/05 10:57:16;;;;;;;35.65;23.27;;;;;;;12.60;50.24;101117.09;5035753;28;20592;-85
2022/03/05 10:59:50;;;;;;;31.65;20.38;;;;;;;12.77;49.73;101126.31;5034029;28;20271;-84
2022/03/05 11:02:18;;;;;;;34.17;21.40;;;;;;;12.76;49.24;101121.94;5035009;28;20168;-83
2022/03/05 11:04:46;;;;;;;30.58;18.65;;;;;;;12.66;49.34;101113.41;5035480;28;20188;-83
2022/03/05 11:07:16;;;;;;;33.17;20.05;;;;;;;12.69;49.56;101118.81;5040714;28;20195;-83
2022/03/05 11:09:44;;;;;;;31.75;20.17;;;;;;;12.73;49.73;101119.09;5034993;28;20168;-84
2022/03/05 11:12:18;;;;;;;30.40;18.95;;;;;;;12.74;49.18;101120.91;5036541;28;20194;-83
2022/03/05 11:14:46;;;;;;;32.97;20.60;;;;;;;12.56;49.73;101108.22;5040849;28;20172;-84
2022/03/05 11:17:11;;;;;;;31.33;21.42;;;;;;;12.62;50.09;101119.06;5043239;28;20208;-83
2022/03/05 11:19:38;;;;;;;30.10;20.65;;;;;;;12.56;49.84;101113.38;5044231;28;20179;-83